Time;durP1;ratioP1;P1;durP2;ratioP2;P2;SDS_P1;SDS_P2;PMS_P1;PMS_P2;Temp;Humidity;BMP_temperature;BMP_pressure;BME280_temperature;BME280_humidity;BME280_pressure;Samples;Min_cycle;Max_cycle;Signal;HPM_P1;HPM_P2
2022/04/22 00:00:36;;;;;;;3.50;2.00;;;;;;;13.44;65.88;92197.09;6216627;22;20566;-75
2022/04/22 00:03:04;;;;;;;2.53;2.33;;;;;;;13.37;65.83;92181.41;6216236;22;20177;-75
2022/04/22 00:05:31;;;;;;;2.17;2.07;;;;;;;13.39;65.94;92183.88;6218137;22;20562;-75
2022/04/22 00:07:59;;;;;;;2.53;2.40;;;;;;;13.61;65.37;92187.56;6216634;22;20499;-75
2022/04/22 00:10:26;;;;;;;10.23;2.10;;;;;;;13.47;65.72;92176.59;6216452;22;20526;-74
2022/04/22 00:12:53;;;;;;;5.87;2.07;;;;;;;13.38;65.53;92136.56;6216907;22;20231;-74
2022/04/22 00:15:22;;;;;;;2.37;2.27;;;;;;;13.68;65.88;92155.00;6216373;22;20617;-74
2022/04/22 00:17:50;;;;;;;5.70;2.60;;;;;;;13.72;65.37;92155.63;6216388;22;20220;-74
2022/04/22 00:20:17;;;;;;;2.50;2.40;;;;;;;13.65;65.23;92155.19;6216417;22;20441;-74
2022/04/22 00:22:44;;;;;;;2.40;2.20;;;;;;;13.80;64.85;92163.59;6215578;22;20197;-75
2022/04/22 00:25:14;;;;;;;6.63;3.57;;;;;;;13.93;64.47;92165.25;6216484;22;20456;-74
2022/04/22 00:27:42;;;;;;;5.37;3.13;;;;;;;14.02;64.10;92159.63;6216405;22;20535;-74
2022/04/22 00:30:11;;;;;;;4.77;3.23;;;;;;;14.21;63.75;92163.50;6216183;22;20196;-74
2022/04/22 00:32:40;;;;;;;2.13;2.03;;;;;;;13.97;64.51;92158.28;6215048;22;20410;-74
2022/04/22 00:35:07;;;;;;;2.87;2.67;;;;;;;13.88;65.18;92162.19;6217768;22;20601;-74
2022/04/22 00:37:35;;;;;;;3.03;2.87;;;;;;;13.52;65.89;92155.09;6216631;22;20407;-74
2022/04/22 00:40:02;;;;;;;3.13;2.77;;;;;;;13.77;65.73;92179.81;6216427;22;20190;-74
2022/04/22 00:42:30;;;;;;;6.20;3.33;;;;;;;13.50;65.96;92159.47;6215798;22;20542;-75
2022/04/22 00:44:58;;;;;;;4.67;3.37;;;;;;;13.20;68.15;92157.06;6216359;22;20439;-74
2022/04/22 00:47:25;;;;;;;3.80;3.50;;;;;;;12.94;68.95;92150.19;6216318;22;20610;-75
2022/04/22 00:49:54;;;;;;;4.33;3.87;;;;;;;13.40;67.88;92186.31;6216063;22;20224;-74
2022/04/22 00:52:22;;;;;;;5.40;3.93;;;;;;;13.57;67.00;92190.38;6215904;22;20177;-75
2022/04/22 00:54:50;;;;;;;7.63;4.10;;;;;;;13.69;66.61;92190.44;6215778;22;20398;-74
2022/04/22 00:57:19;;;;;;;7.20;3.80;;;;;;;13.71;66.73;92192.88;6216119;22;20161;-74
2022/04/22 00:59:47;;;;;;;4.93;4.43;;;;;;;13.65;67.27;92195.78;6216282;22;20451;-75
2022/04/22 01:02:14;;;;;;;3.97;3.77;;;;;;;13.58;67.09;92202.13;6217149;22;20158;-74
2022/04/22 01:10:13;;;;;;;2.33;2.23;;;;;;;13.51;67.46;92223.75;6216392;22;20480;-74
2022/04/22 01:12:41;;;;;;;2.57;2.40;;;;;;;13.48;67.65;92223.91;6215514;22;20483;-74
2022/04/22 01:15:08;;;;;;;5.80;2.20;;;;;;;13.50;67.45;92219.56;6216420;22;20565;-74
2022/04/22 01:17:36;;;;;;;3.03;2.83;;;;;;;13.43;67.38;92200.53;6216102;22;20600;-74
2022/04/22 01:20:04;;;;;;;3.30;3.10;;;;;;;13.45;67.46;92199.56;6216952;22;20597;-74
2022/04/22 01:22:32;;;;;;;3.73;3.40;;;;;;;13.62;67.56;92212.03;6215361;22;20543;-75
2022/04/22 01:25:01;;;;;;;4.60;4.20;;;;;;;13.59;67.70;92196.16;6215733;22;20523;-74
2022/04/22 01:27:30;;;;;;;5.50;3.70;;;;;;;13.44;68.08;92208.06;6216321;22;20541;-74
2022/04/22 01:29:58;;;;;;;4.73;3.87;;;;;;;13.39;68.33;92196.56;6216431;22;20232;-74
2022/04/22 01:32:27;;;;;;;4.80;4.33;;;;;;;13.37;68.90;92190.75;6215802;22;20554;-74
2022/04/22 01:34:54;;;;;;;4.83;4.43;;;;;;;13.17;69.39;92186.88;6215217;22;20293;-74
2022/04/22 01:37:21;;;;;;;4.77;4.43;;;;;;;13.19;69.16;92172.38;6216217;22;20569;-74
2022/04/22 01:39:50;;;;;;;6.27;4.50;;;;;;;13.27;69.62;92180.34;6216271;22;20213;-74
2022/04/22 01:42:19;;;;;;;5.53;4.57;;;;;;;13.03;70.25;92176.69;6215403;22;20241;-74
2022/04/22 01:44:46;;;;;;;4.67;4.37;;;;;;;13.00;70.53;92179.44;6215280;22;20397;-74
2022/04/22 01:47:14;;;;;;;5.20;4.57;;;;;;;12.86;71.02;92162.47;6216280;22;20432;-74
2022/04/22 01:49:41;;;;;;;5.23;4.80;;;;;;;12.76;71.51;92172.34;6215741;22;20503;-74
2022/04/22 01:52:09;;;;;;;5.03;4.63;;;;;;;12.83;71.97;92167.75;6216323;22;20153;-74
2022/04/22 01:54:36;;;;;;;5.03;4.60;;;;;;;12.53;72.20;92159.38;6216388;22;20177;-75
2022/04/22 01:57:06;;;;;;;5.27;4.87;;;;;;;12.83;71.83;92177.88;6216194;22;20433;-75
2022/04/22 01:59:34;;;;;;;7.40;5.17;;;;;;;12.67;72.51;92177.13;6215597;22;20518;-75
2022/04/22 02:02:01;;;;;;;7.60;6.90;;;;;;;12.21;73.77;92159.50;6216484;22;20177;-74
2022/04/22 02:04:28;;;;;;;7.13;6.23;;;;;;;12.53;72.62;92166.97;6215070;22;20470;-74
2022/04/22 02:06:55;;;;;;;9.10;5.60;;;;;;;12.60;72.23;92165.72;6215932;22;20452;-74
2022/04/22 02:09:23;;;;;;;5.67;5.17;;;;;;;12.56;72.43;92151.59;6215650;22;20458;-75
2022/04/22 02:11:50;;;;;;;11.00;6.30;;;;;;;12.68;71.43;92138.19;6215360;22;20150;-74
2022/04/22 02:14:19;;;;;;;5.03;4.63;;;;;;;12.81;71.38;92146.72;6214926;22;20545;-74
2022/04/22 02:16:46;;;;;;;3.90;3.70;;;;;;;12.52;71.59;92132.38;6216139;22;20412;-75
2022/04/22 02:19:14;;;;;;;3.40;3.23;;;;;;;12.50;71.65;92134.22;6216193;22;20158;-75
2022/04/22 02:21:42;;;;;;;4.03;3.83;;;;;;;12.70;71.21;92146.53;6215984;22;20433;-75
2022/04/22 02:24:09;;;;;;;4.80;4.47;;;;;;;12.69;71.02;92152.50;6215114;22;20488;-75
2022/04/22 02:29:26;;;;;;;4.80;3.10;;;;;;;12.90;70.26;92160.59;6215580;22;20553;-74
2022/04/22 02:31:53;;;;;;;2.30;2.20;;;;;;;12.57;71.25;92148.13;6215591;22;20541;-74
2022/04/22 02:34:21;;;;;;;2.30;1.70;;;;;;;12.67;70.73;92145.00;6214955;22;20162;-74
2022/04/22 02:36:48;;;;;;;2.93;1.30;;;;;;;12.55;70.97;92147.44;6215744;22;20154;-74
2022/04/22 02:39:16;;;;;;;1.03;1.03;;;;;;;12.61;70.40;92139.47;6215293;22;20471;-74
2022/04/22 02:47:14;;;;;;;1.90;1.80;;;;;;;12.69;69.94;92117.84;6215397;22;20176;-74
2022/04/22 02:49:44;;;;;;;1.30;1.30;;;;;;;12.74;69.85;92110.78;6215385;22;20429;-74
2022/04/22 02:52:11;;;;;;;1.50;1.50;;;;;;;12.83;69.65;92102.66;6215616;22;20154;-75
2022/04/22 02:54:39;;;;;;;3.20;3.00;;;;;;;12.99;68.87;92102.53;6214723;22;20398;-74
2022/04/22 02:57:07;;;;;;;3.87;1.90;;;;;;;13.08;68.87;92101.16;6216931;22;20549;-74
2022/04/22 02:59:37;;;;;;;1.70;1.53;;;;;;;13.11;68.61;92106.88;6217192;22;20584;-74
2022/04/22 03:02:04;;;;;;;1.80;1.70;;;;;;;13.09;68.60;92118.00;6217255;22;20472;-74
2022/04/22 03:04:32;;;;;;;1.90;1.80;;;;;;;13.07;68.12;92115.56;6217276;22;20534;-74
2022/04/22 03:06:59;;;;;;;2.03;1.83;;;;;;;12.94;68.54;92113.88;6218436;22;20173;-74
2022/04/22 03:09:26;;;;;;;2.77;2.13;;;;;;;12.82;69.38;92117.94;6217018;22;20403;-74
2022/04/22 03:11:53;;;;;;;2.53;2.40;;;;;;;12.83;69.38;92132.25;6217844;22;20223;-74
2022/04/22 03:14:21;;;;;;;5.47;3.10;;;;;;;12.90;69.09;92123.34;6217560;22;20384;-74
2022/04/22 03:16:49;;;;;;;4.33;3.53;;;;;;;13.14;68.71;92133.78;6216753;22;20462;-74
2022/04/22 03:19:16;;;;;;;4.00;3.60;;;;;;;13.14;68.10;92121.09;6218697;22;20523;-74
2022/04/22 03:21:43;;;;;;;2.90;2.80;;;;;;;12.78;67.68;92055.66;6216935;22;20574;-74
2022/04/22 03:24:11;;;;;;;4.83;3.30;;;;;;;13.15;67.80;92123.56;6216960;22;20534;-74
2022/04/22 03:26:38;;;;;;;5.67;3.87;;;;;;;13.05;68.20;92122.47;6216907;22;20435;-74
2022/04/22 03:29:05;;;;;;;4.00;3.73;;;;;;;12.65;69.24;92113.03;6217153;22;20497;-74
2022/04/22 03:31:32;;;;;;;4.30;3.90;;;;;;;12.55;69.74;92122.91;6217825;22;20233;-75
2022/04/22 03:34:01;;;;;;;10.07;4.37;;;;;;;12.90;69.10;92123.34;6216744;22;20162;-74
2022/04/22 03:36:28;;;;;;;3.40;3.13;;;;;;;12.97;68.46;92137.31;6216698;22;20562;-74
2022/04/22 03:38:55;;;;;;;12.87;6.67;;;;;;;12.80;68.87;92143.38;6218175;22;20472;-74
2022/04/22 03:41:23;;;;;;;12.23;8.57;;;;;;;12.73;69.30;92139.56;6217186;22;20627;-74
2022/04/22 03:43:50;;;;;;;8.53;5.07;;;;;;;12.77;69.16;92145.28;6216250;22;20416;-74
2022/04/22 03:46:17;;;;;;;4.87;4.60;;;;;;;12.61;69.29;92120.03;6216243;22;20186;-74
2022/04/22 03:48:45;;;;;;;5.43;4.27;;;;;;;12.74;69.09;92130.22;6217571;22;20552;-74
2022/04/22 03:51:15;;;;;;;8.60;6.13;;;;;;;12.86;69.17;92135.41;6216853;22;20429;-74
2022/04/22 03:53:43;;;;;;;6.50;5.87;;;;;;;12.71;68.95;92122.81;6216449;22;20408;-74
2022/04/22 03:58:55;;;;;;;7.43;6.53;;;;;;;12.05;71.15;92113.94;6216927;22;20517;-74
2022/04/22 04:01:22;;;;;;;12.53;7.47;;;;;;;12.54;70.14;92156.75;6217872;22;20178;-74
2022/04/22 04:03:49;;;;;;;7.77;7.07;;;;;;;11.99;70.73;92093.22;6216260;22;20435;-74
2022/04/22 04:06:24;;;;;;;15.70;6.97;;;;;;;12.78;69.38;92174.81;6216158;22;20620;-74
2022/04/22 04:17:02;;;;;;;4.90;4.50;;;;;;;12.49;70.58;92168.06;6217096;22;20510;-74
2022/04/22 04:24:59;;;;;;;4.53;4.13;;;;;;;12.35;70.34;92126.56;6216598;22;20176;-74
2022/04/22 04:27:26;;;;;;;11.67;7.27;;;;;;;12.70;69.74;92172.69;6214746;22;20585;-74
2022/04/22 04:29:53;;;;;;;20.73;10.27;;;;;;;12.26;69.83;92094.19;6216636;22;20418;-73
2022/04/22 04:32:21;;;;;;;19.00;11.57;;;;;;;12.78;69.59;92175.63;6216717;22;20525;-73
2022/04/22 04:34:48;;;;;;;11.50;7.37;;;;;;;12.48;69.62;92123.34;6217544;22;20467;-74
2022/04/22 04:37:17;;;;;;;18.10;11.10;;;;;;;12.93;69.70;92181.50;6216964;22;20506;-74
2022/04/22 04:39:44;;;;;;;29.00;11.10;;;;;;;12.94;69.88;92193.28;6218089;22;20477;-73
2022/04/22 04:42:12;;;;;;;19.53;12.07;;;;;;;12.97;69.28;92182.13;6217057;22;20581;-73
2022/04/22 04:44:39;;;;;;;19.40;11.20;;;;;;;12.92;69.47;92173.97;6215830;22;20176;-73
2022/04/22 04:47:07;;;;;;;15.40;9.23;;;;;;;13.11;69.45;92185.50;6216700;22;20529;-73
2022/04/22 04:49:34;;;;;;;19.97;10.57;;;;;;;12.74;69.04;92131.06;6216919;22;20534;-73
2022/04/22 04:52:02;;;;;;;17.80;11.10;;;;;;;12.77;69.21;92127.53;6190832;22;20166;-74
2022/04/22 04:54:34;;;;;;;27.00;13.83;;;;;;;12.84;68.56;92116.94;6215124;22;20526;-74
2022/04/22 04:57:05;;;;;;;19.40;10.37;;;;;;;12.86;69.50;92140.47;6216332;22;20200;-73
2022/04/22 04:59:32;;;;;;;16.77;10.10;;;;;;;12.73;69.44;92118.50;6215451;22;20613;-76
2022/04/22 05:01:59;;;;;;;22.83;14.03;;;;;;;12.81;69.37;92134.03;6216373;22;20538;-76
2022/04/22 05:04:27;;;;;;;35.10;17.67;;;;;;;12.46;69.93;92078.63;6216582;22;20533;-75
2022/04/22 05:06:54;;;;;;;22.90;13.03;;;;;;;12.86;70.07;92126.97;6217466;22;20209;-75
2022/04/22 05:09:21;;;;;;;10.70;7.87;;;;;;;12.71;70.21;92100.00;6216326;22;20458;-75
2022/04/22 05:11:50;;;;;;;19.70;11.43;;;;;;;13.32;69.83;92155.53;6217650;22;20494;-75
2022/04/22 05:14:19;;;;;;;48.10;19.67;;;;;;;12.97;69.57;92132.22;6216246;22;20400;-76
2022/04/22 05:16:46;;;;;;;21.60;13.23;;;;;;;12.94;70.31;92144.28;6215436;22;20368;-76
2022/04/22 05:19:14;;;;;;;25.13;14.10;;;;;;;12.98;69.87;92138.13;6217589;22;20154;-74
2022/04/22 05:21:41;;;;;;;29.23;15.53;;;;;;;12.74;69.66;92077.00;6215736;22;20408;-76
2022/04/22 05:24:09;;;;;;;28.20;15.83;;;;;;;13.03;69.68;92120.91;6215908;22;20162;-76
2022/04/22 05:26:36;;;;;;;27.13;14.57;;;;;;;13.47;69.19;92179.97;6216739;22;20624;-76
2022/04/22 05:29:05;;;;;;;25.07;13.93;;;;;;;13.32;67.88;92101.44;6216002;22;20193;-75
2022/04/22 05:34:37;;;;;;;104.33;37.13;;;;;;;13.24;68.26;92135.69;6216324;22;20557;-76
2022/04/22 05:37:04;;;;;;;91.60;32.53;;;;;;;13.27;68.98;92142.31;6215249;22;20514;-76
2022/04/22 05:39:32;;;;;;;72.00;28.37;;;;;;;13.35;68.50;92152.00;6215053;22;20601;-75
2022/04/22 05:42:00;;;;;;;66.47;27.53;;;;;;;13.69;68.43;92179.47;6215384;22;20189;-76
2022/04/22 05:44:29;;;;;;;74.43;31.03;;;;;;;13.41;67.65;92099.13;6215455;22;20397;-75
2022/04/22 05:46:57;;;;;;;38.70;20.47;;;;;;;13.20;67.78;92093.66;6215279;22;20552;-75
2022/04/22 05:49:24;;;;;;;43.07;19.60;;;;;;;13.46;67.60;92129.31;6215143;22;20425;-75
2022/04/22 05:51:52;;;;;;;48.20;19.80;;;;;;;13.67;67.74;92164.34;6215823;22;20522;-75
2022/04/22 05:54:19;;;;;;;32.27;15.40;;;;;;;13.53;67.50;92131.38;6215564;22;20506;-75
2022/04/22 05:56:47;;;;;;;24.73;14.23;;;;;;;13.37;67.76;92119.72;6215522;22;20537;-75
2022/04/22 05:59:14;;;;;;;32.43;14.77;;;;;;;13.17;68.20;92124.28;6215571;22;20432;-76
2022/04/22 06:01:43;;;;;;;33.73;16.40;;;;;;;13.75;67.89;92151.16;6215435;22;20189;-74
2022/04/22 06:04:11;;;;;;;62.43;29.23;;;;;;;13.68;68.49;92125.38;6215500;22;20550;-74
2022/04/22 06:06:38;;;;;;;45.13;18.97;;;;;;;13.32;68.56;92007.56;6215700;22;20460;-77
2022/04/22 06:11:52;;;;;;;45.60;20.37;;;;;;;13.70;68.75;91985.63;6215295;22;20173;-76
2022/04/22 06:14:19;;;;;;;34.93;16.10;;;;;;;13.53;69.36;91983.34;6215405;22;20396;-76
2022/04/22 06:16:48;;;;;;;46.67;20.40;;;;;;;13.60;69.54;92008.25;6215653;22;20419;-77
2022/04/22 06:19:21;;;;;;;53.07;26.70;;;;;;;13.98;69.50;92056.56;6215609;22;20532;-77
2022/04/22 06:21:49;;;;;;;76.93;30.67;;;;;;;13.20;70.20;91983.78;6215687;22;20421;-77
2022/04/22 06:24:16;;;;;;;40.57;20.57;;;;;;;13.43;69.66;91995.81;6215471;22;20462;-77
2022/04/22 06:26:45;;;;;;;26.37;14.80;;;;;;;13.92;69.21;92031.56;6215239;22;20627;-74
2022/04/22 06:29:13;;;;;;;16.87;10.50;;;;;;;13.39;68.26;91971.56;6215439;22;20397;-74
2022/04/22 06:31:41;;;;;;;16.97;12.80;;;;;;;14.09;68.06;92045.72;6214292;22;20538;-75
2022/04/22 06:34:41;;;;;;;20.67;12.67;;;;;;;14.74;66.60;92054.09;6217640;22;20396;-78
2022/04/22 06:37:32;;;;;;;29.57;15.80;;;;;;;14.60;67.30;92046.56;6217800;22;20608;-77
2022/04/22 06:45:48;;;;;;;17.10;10.10;;;;;;;14.55;66.34;92030.81;6217726;22;20256;-75
2022/04/22 06:48:17;;;;;;;5.07;4.70;;;;;;;14.53;65.14;92014.88;6217212;22;20203;-74
2022/04/22 06:50:49;;;;;;;13.83;7.67;;;;;;;15.06;64.84;92041.72;6218584;22;20538;-73
2022/04/22 06:53:17;;;;;;;10.47;8.17;;;;;;;14.94;64.74;92017.94;6217077;22;20853;-74
2022/04/22 06:55:46;;;;;;;20.37;6.93;;;;;;;14.75;66.02;92020.13;6216893;22;20600;-74
2022/04/22 06:58:15;;;;;;;20.37;9.83;;;;;;;14.95;64.35;91990.78;6216844;22;20550;-74
2022/04/22 07:00:44;;;;;;;17.57;10.63;;;;;;;15.09;62.83;92013.53;6215657;22;20157;-74
2022/04/22 07:03:14;;;;;;;14.47;9.80;;;;;;;15.42;63.07;92061.28;6216391;22;20443;-74
2022/04/22 07:05:44;;;;;;;17.60;10.17;;;;;;;15.32;63.05;92045.81;6217043;22;20173;-76
2022/04/22 07:08:17;;;;;;;20.60;11.87;;;;;;;15.38;62.87;92034.38;6217332;22;20539;-76
2022/04/22 07:10:46;;;;;;;19.30;11.90;;;;;;;15.58;62.29;92059.31;6216541;22;20591;-76
2022/04/22 07:13:16;;;;;;;22.63;13.40;;;;;;;15.10;62.61;91976.16;6215644;22;20550;-75
2022/04/22 07:15:48;;;;;;;15.07;8.87;;;;;;;15.19;62.70;91985.72;6216023;22;20518;-75
2022/04/22 07:18:17;;;;;;;11.17;7.70;;;;;;;15.45;62.57;91996.59;6216166;22;20444;-75
2022/04/22 07:20:45;;;;;;;10.40;5.97;;;;;;;15.70;61.28;92030.44;6216930;22;20417;-74
2022/04/22 07:23:14;;;;;;;7.87;7.10;;;;;;;15.38;60.04;92010.69;6216411;22;20582;-75
2022/04/22 07:25:46;;;;;;;7.97;7.33;;;;;;;15.60;60.74;92041.38;6217673;22;20162;-75
2022/04/22 07:28:15;;;;;;;17.37;6.73;;;;;;;15.76;60.57;92059.75;6216458;22;20553;-75
2022/04/22 07:30:46;;;;;;;20.17;10.80;;;;;;;15.61;60.34;92009.88;6215211;22;20538;-75
2022/04/22 07:33:14;;;;;;;10.30;8.97;;;;;;;16.02;59.97;92060.41;6217317;22;20451;-74
2022/04/22 07:35:42;;;;;;;5.90;5.60;;;;;;;15.72;60.12;92005.63;6215671;22;20542;-77
2022/04/22 07:38:11;;;;;;;9.30;7.90;;;;;;;16.19;59.52;92049.78;6215532;22;20456;-75
2022/04/22 07:40:43;;;;;;;4.90;4.50;;;;;;;15.80;60.38;91979.63;6213349;22;20604;-75
2022/04/22 07:48:42;;;;;;;6.83;6.13;;;;;;;15.68;59.23;91981.31;6217062;22;20172;-74
2022/04/22 07:51:09;;;;;;;6.47;5.97;;;;;;;15.97;59.32;91983.50;6215801;22;20465;-75
2022/04/22 07:53:37;;;;;;;9.40;6.60;;;;;;;15.75;60.52;91964.69;6215670;22;20526;-76
2022/04/22 07:56:06;;;;;;;7.77;5.37;;;;;;;16.28;58.69;92045.78;6217934;22;20402;-74
2022/04/22 07:58:33;;;;;;;4.97;4.63;;;;;;;15.99;58.61;91976.56;6216523;22;20507;-77
2022/04/22 08:01:01;;;;;;;4.47;4.07;;;;;;;16.03;58.24;91962.66;6216299;22;20404;-74
2022/04/22 08:03:28;;;;;;;7.37;5.70;;;;;;;16.96;57.51;92040.63;6217557;22;20581;-74
2022/04/22 08:06:07;;;;;;;6.57;5.10;;;;;;;17.13;56.69;92040.16;6215398;22;20704;-75
2022/04/22 08:08:44;;;;;;;7.70;4.90;;;;;;;17.33;55.75;92064.16;6210806;22;20477;-76
2022/04/22 08:11:13;;;;;;;4.68;4.28;;;;;;;17.49;54.41;92067.16;6213542;22;20605;-76
2022/04/22 08:13:42;;;;;;;5.10;4.67;;;;;;;17.21;54.59;91976.56;6213146;22;20482;-78
2022/04/22 08:16:10;;;;;;;5.20;4.80;;;;;;;17.45;54.14;92044.53;6214732;22;20165;-73
2022/04/22 08:18:41;;;;;;;7.45;4.80;;;;;;;17.81;54.08;92033.97;6216392;22;20442;-75
2022/04/22 08:21:10;;;;;;;9.68;7.13;;;;;;;17.99;53.48;92026.59;6214034;22;20553;-75
2022/04/22 08:23:37;;;;;;;6.95;6.18;;;;;;;17.47;54.03;91948.16;6213454;22;20822;-77
2022/04/22 08:26:09;;;;;;;5.40;4.43;;;;;;;18.38;51.44;92022.56;6214219;22;20522;-77
2022/04/22 08:28:39;;;;;;;10.48;5.75;;;;;;;18.87;51.46;92032.94;6214689;22;20444;-76
2022/04/22 08:31:06;;;;;;;5.75;5.45;;;;;;;18.26;51.95;92000.53;6213739;22;20177;-75
2022/04/22 08:33:33;;;;;;;9.73;5.70;;;;;;;18.43;51.66;91994.84;6216382;22;20542;-72
2022/04/22 08:36:01;;;;;;;16.70;7.55;;;;;;;18.75;51.12;92026.31;6215290;22;20234;-75
2022/04/22 08:38:28;;;;;;;7.60;5.05;;;;;;;18.38;51.44;91967.09;6216303;22;20405;-74
2022/04/22 08:40:56;;;;;;;10.85;6.93;;;;;;;18.93;52.04;92017.06;6216710;22;20572;-74
2022/04/22 08:43:25;;;;;;;17.05;9.20;;;;;;;19.05;50.75;92023.72;6216044;22;20541;-73
2022/04/22 08:45:54;;;;;;;4.88;4.07;;;;;;;19.15;48.19;91982.78;6215848;22;20549;-76
2022/04/22 08:51:09;;;;;;;3.38;3.17;;;;;;;19.51;48.40;92009.56;6215776;22;20553;-74
2022/04/22 08:53:38;;;;;;;10.55;4.82;;;;;;;20.22;48.37;92013.50;6215527;22;20474;-75
2022/04/22 08:56:09;;;;;;;6.22;3.78;;;;;;;20.09;48.05;92004.47;6214763;22;20598;-72
2022/04/22 08:58:36;;;;;;;3.88;3.67;;;;;;;20.15;46.84;92001.38;6217472;22;20451;-75
2022/04/22 09:01:08;;;;;;;4.05;3.85;;;;;;;20.56;45.40;92018.22;6215476;22;20669;-74
2022/04/22 09:03:36;;;;;;;3.50;3.20;;;;;;;20.19;44.53;92000.16;6215397;22;20208;-73
2022/04/22 09:06:04;;;;;;;28.98;12.20;;;;;;;19.95;45.03;91938.22;6216315;22;20528;-73
2022/04/22 09:08:33;;;;;;;19.02;8.85;;;;;;;20.42;45.72;91987.84;6215325;22;20514;-74
2022/04/22 09:11:04;;;;;;;4.68;4.20;;;;;;;20.12;43.73;91958.03;6215719;22;20220;-73
2022/04/22 09:14:10;;;;;;;7.35;5.43;;;;;;;20.58;42.56;91995.78;6213961;22;20173;-73
2022/04/22 09:16:43;;;;;;;20.73;11.30;;;;;;;20.05;42.92;91924.47;6184987;23;20538;-72
2022/04/22 09:19:11;;;;;;;4.00;3.70;;;;;;;20.44;43.69;91988.53;6184655;23;20462;-73
2022/04/22 09:21:39;;;;;;;5.15;4.72;;;;;;;20.46;43.78;91966.09;6184660;23;20519;-75
2022/04/22 09:24:14;;;;;;;5.20;4.72;;;;;;;20.51;42.97;91933.94;6184521;23;20162;-74
2022/04/22 09:26:42;;;;;;;4.78;4.50;;;;;;;20.75;42.94;91948.84;6185182;23;20429;-73
2022/04/22 09:29:11;;;;;;;12.45;5.20;;;;;;;20.21;43.98;91886.22;6182617;23;20831;-73
2022/04/22 09:31:51;;;;;;;3.60;3.30;;;;;;;20.39;43.58;91831.63;6184521;23;20582;-73
2022/04/22 09:34:33;;;;;;;4.20;3.80;;;;;;;20.98;44.42;91880.75;6182148;23;20552;-74
2022/04/22 09:42:54;;;;;;;11.15;6.00;;;;;;;21.44;43.51;91884.94;6184879;23;20562;-73
2022/04/22 09:45:23;;;;;;;2.80;2.60;;;;;;;21.29;43.47;91857.34;6184687;23;20158;-75
2022/04/22 09:47:59;;;;;;;4.88;3.65;;;;;;;21.50;42.78;91920.34;6184343;23;20581;-74
2022/04/22 09:50:46;;;;;;;6.90;4.30;;;;;;;21.60;42.38;91880.88;6184466;23;20586;-75
2022/04/22 09:53:16;;;;;;;4.80;4.03;;;;;;;21.78;43.36;91859.34;6184413;23;20462;-74
2022/04/22 09:55:53;;;;;;;7.93;4.82;;;;;;;22.58;42.08;91893.47;6184272;23;20547;-75
2022/04/22 09:58:27;;;;;;;3.30;3.05;;;;;;;22.39;38.87;91858.44;6185104;23;20638;-74
2022/04/22 10:01:04;;;;;;;5.07;3.13;;;;;;;23.15;38.62;91918.50;6184803;23;20481;-73
2022/04/22 10:03:34;;;;;;;5.88;2.13;;;;;;;23.50;37.27;91922.66;6182182;23;20234;-73
2022/04/22 10:06:03;;;;;;;4.88;2.63;;;;;;;23.31;37.42;91899.72;6183510;23;20446;-77
2022/04/22 10:08:36;;;;;;;4.20;4.00;;;;;;;23.29;37.58;91908.56;6183912;23;20182;-75
2022/04/22 10:11:08;;;;;;;1.90;1.80;;;;;;;23.47;34.89;91892.03;6183484;23;20427;-73
2022/04/22 10:13:42;;;;;;;1.85;1.75;;;;;;;23.87;30.58;92003.97;6181783;23;20162;-73
2022/04/22 10:16:15;;;;;;;1.30;1.08;;;;;;;23.59;30.00;91936.38;6182433;23;20540;-73
2022/04/22 10:18:50;;;;;;;3.75;1.88;;;;;;;24.44;32.18;91944.66;6182314;23;20590;-74
2022/04/22 10:21:22;;;;;;;3.17;2.00;;;;;;;25.18;31.94;91903.75;6183323;23;20576;-74
2022/04/22 10:24:23;;;;;;;5.18;2.35;;;;;;;26.96;28.59;91958.63;6183437;23;20189;-72
2022/04/22 10:26:56;;;;;;;1.70;1.60;;;;;;;27.99;26.97;91964.50;6134071;23;20629;-76
2022/04/22 10:29:25;;;;;;;1.50;1.33;;;;;;;27.23;25.85;91973.53;6184185;23;20232;-75
2022/04/22 10:32:06;;;;;;;1.80;1.70;;;;;;;27.89;25.79;91957.97;6184596;23;20400;-75
2022/04/22 10:35:00;;;;;;;2.38;2.15;;;;;;;28.73;25.74;91966.78;6184264;23;20542;-74
2022/04/22 10:37:41;;;;;;;1.40;1.40;;;;;;;29.06;25.18;91956.59;6184559;23;20467;-72
2022/04/22 10:40:27;;;;;;;1.83;1.38;;;;;;;29.30;23.69;91987.34;6184129;23;20400;-74
2022/04/22 10:43:06;;;;;;;1.55;1.20;;;;;;;28.48;24.15;91979.34;6157396;23;20241;-74
2022/04/22 10:49:20;;;;;;;0.90;0.90;;;;;;;29.76;22.39;91992.81;6182816;23;20768;-75
2022/04/22 10:52:18;;;;;;;1.70;1.70;;;;;;;31.14;22.34;91980.03;6183336;23;20404;-73
2022/04/22 10:55:17;;;;;;;2.35;0.98;;;;;;;31.35;21.24;92014.72;6184472;23;20608;-75
2022/04/22 10:58:27;;;;;;;0.93;0.73;;;;;;;31.62;21.13;91966.66;6185234;23;20479;-75
2022/04/22 11:00:57;;;;;;;1.10;1.10;;;;;;;32.10;20.91;91990.56;6184371;22;20543;-73
2022/04/22 11:03:27;;;;;;;3.33;1.35;;;;;;;30.99;21.67;91983.81;6183876;23;20507;-74
2022/04/22 11:05:57;;;;;;;2.22;1.00;;;;;;;30.84;21.54;91991.84;6183782;23;20159;-73
2022/04/22 11:08:31;;;;;;;3.58;1.73;;;;;;;30.57;23.56;91967.59;6183865;23;20466;-73
2022/04/22 11:11:23;;;;;;;1.88;1.45;;;;;;;30.08;24.00;91950.44;6182978;23;20542;-73
2022/04/22 11:13:52;;;;;;;2.53;2.35;;;;;;;29.08;23.97;91971.00;6184016;23;20296;-74
2022/04/22 11:16:29;;;;;;;1.67;1.58;;;;;;;28.83;23.20;91964.66;6184201;23;20625;-74
2022/04/22 11:19:36;;;;;;;1.05;1.05;;;;;;;28.71;24.07;91953.94;6185831;23;20201;-73
2022/04/22 11:22:06;;;;;;;2.70;1.10;;;;;;;28.13;24.56;91936.06;6186574;23;20229;-74
2022/04/22 11:24:36;;;;;;;1.38;1.27;;;;;;;28.34;24.22;91943.81;6185547;23;20223;-74
2022/04/22 11:27:06;;;;;;;1.73;1.63;;;;;;;28.66;24.64;91942.50;6185582;23;20537;-74
2022/04/22 11:29:33;;;;;;;2.67;1.40;;;;;;;27.46;25.67;91941.50;6184894;23;20162;-74
2022/04/22 11:32:18;;;;;;;0.80;0.80;;;;;;;26.95;24.59;91948.41;6186649;23;20432;-74
2022/04/22 11:35:07;;;;;;;0.90;0.90;;;;;;;26.81;24.32;91957.78;6185175;23;20533;-75
2022/04/22 11:37:37;;;;;;;3.92;2.22;;;;;;;26.80;25.87;91931.06;6185216;23;20534;-74
2022/04/22 11:40:09;;;;;;;1.83;1.73;;;;;;;27.32;25.22;91924.97;6185868;23;20534;-73
2022/04/22 11:42:43;;;;;;;13.77;5.35;;;;;;;26.28;24.80;91938.03;6185303;23;20216;-77
2022/04/22 11:45:14;;;;;;;1.80;1.70;;;;;;;26.12;25.69;91925.19;6184992;23;20174;-75
2022/04/22 11:47:42;;;;;;;2.55;1.00;;;;;;;25.59;25.66;91925.06;6186690;23;20158;-74
2022/04/22 11:50:10;;;;;;;1.33;1.30;;;;;;;25.61;25.50;91922.31;6185885;23;20432;-74
2022/04/22 11:52:38;;;;;;;1.30;1.30;;;;;;;25.73;25.92;91918.34;6185907;23;20225;-74
2022/04/22 11:55:08;;;;;;;1.00;1.00;;;;;;;25.77;26.04;91924.78;6185749;23;20570;-74
2022/04/22 11:57:37;;;;;;;172.48;88.85;;;;;;;25.17;26.92;91904.75;6186010;23;20158;-74
2022/04/22 12:06:03;;;;;;;1.23;1.23;;;;;;;25.32;27.44;91886.72;6188045;23;20530;-76
2022/04/22 12:08:50;;;;;;;34.05;19.45;;;;;;;25.16;26.64;91864.34;6186820;23;20551;-78
2022/04/22 12:11:23;;;;;;;1.70;1.60;;;;;;;24.72;28.19;91783.94;6186817;23;20154;-76
2022/04/22 12:13:51;;;;;;;5.63;4.25;;;;;;;24.95;26.58;91868.50;6186163;23;20566;-77
2022/04/22 12:16:19;;;;;;;2.58;1.48;;;;;;;24.76;27.33;91825.72;6185733;23;20475;-77
2022/04/22 12:18:48;;;;;;;1.02;1.02;;;;;;;24.95;28.70;91834.88;6183180;23;20787;-77
2022/04/22 12:21:17;;;;;;;2.22;1.67;;;;;;;24.89;28.44;91869.16;6183277;23;20679;-78
2022/04/22 12:23:46;;;;;;;1.73;1.27;;;;;;;24.76;27.57;91839.47;6183963;23;20558;-77
2022/04/22 12:26:17;;;;;;;1.00;1.00;;;;;;;24.49;27.17;91832.13;6184077;23;20511;-79
2022/04/22 12:29:01;;;;;;;8.20;1.30;;;;;;;24.80;27.21;91870.91;6184344;23;20450;-81
2022/04/22 12:31:30;;;;;;;0.93;0.93;;;;;;;24.88;27.98;91839.94;6183637;23;20479;-76
2022/04/22 12:33:59;;;;;;;3.58;3.28;;;;;;;24.85;27.19;91868.63;6184579;23;20649;-75
2022/04/22 12:36:26;;;;;;;2.30;2.13;;;;;;;24.49;27.52;91864.91;6184617;23;20480;-76
2022/04/22 12:38:54;;;;;;;5.97;1.08;;;;;;;24.69;27.15;91859.19;6184380;23;20189;-77
2022/04/22 12:41:23;;;;;;;0.95;0.95;;;;;;;24.65;26.96;91847.56;6184492;23;20174;-77
2022/04/22 12:43:52;;;;;;;2.83;1.10;;;;;;;24.75;27.66;91837.84;6184320;23;20401;-78
2022/04/22 12:52:23;;;;;;;1.02;1.02;;;;;;;25.72;26.80;91848.66;6182539;23;20479;-78
2022/04/22 12:54:51;;;;;;;1.98;1.60;;;;;;;25.71;25.57;91841.84;6176001;23;20503;-76